Главная страница
METAR-TAF:

METAR-TAF

Аэропорты :

Кеми-Торнио

Кеми, Финляндия

широта: 65-47N, долгота: 024-35E, высота над уровнем моря: 15 м

Текущие метеонаблюдения

Эта сводка был подготовлена 30 минут назад, в 16:20 UTC
Ветер 4 Узел от северо-северо-восточный
Температура 17°C
Влажность 55%
Давление 1011 hPa
Видимость 10 км и более
Нет облачности ниже 1500 м, и нет кучево-дождевой облачности

METAR: EFKE 221620Z AUTO 02004KT CAVOK 17/08 Q1011

Время: 19:50 (16:50 UTC)

Прогноз

Эта сводка был подготовлена 26 часа и 17 минут назад, в 14:33 UTC
Прогноз действительный с 21-го 15 UTC до 21-го 18 UTC
Ветер 10 Узел от северно-северо-западный
Видимость 10 км и более
небольшая облачность на высоте 3500 фута
временами
С 21-го 15 UTC до 21-го 18 UTC
небольшая облачность на высоте 3000 фута, Кучево-дождевые.
ливневые дожди,

TAF: EFKE 211433Z 2115/2118 33010KT 9999 FEW035 TEMPO 2115/2118 SHRA FEW030CB

Метеонаблюдения и прогнозы для более 4000 аэропортов (сводки METAR и TAF).

Имеющиеся станции представлены на карте желтыми и красными точками.

Чтобы увидеть название станции, наведите на нее мышь.

Затем щелкните, чтобы увидеть метеонаблюдения и метеопрогнозы.

Управление картой: чтобы увеличить масштаб, щелкните зеленые кнопки с черным крестиком; чтобы уменьшить масштаб, щелкните зеленую кнопку с тире; для просмотра соседних карт щелкайте зеленые стрелки.


METAR-TAF: